Hlavní strana
METAR-TAF:

METAR-TAF

Letiště :

Bolzano, Itálie

zeměpisná šířka: 46-28N, zeměpisná délka: 011-20E, výška: 262 m

Aktuální stav počasí

Zpráva byla vytvořena před 6 hodinami a 57 minutami, v 21:50 UTC
Jižní vítr 2 kt
Teplota 4°C
Vlhkost vzduchu 70%
Tlak 1017 hPa
Viditelnost 10 km a více
Polojasno ve výšce 4500 ft
Polojasno ve výšce 6500 ft

METAR: LIPB 172150Z 17002KT 9999 SCT045 SCT065 04/M01 Q1017

Čas: 05:47 (04:47 UTC)

Předpověď počasí

Zpráva byla vytvořena před 11 hodinami a 47 minutami, v 17:00 UTC
Předpověď platná od 17 v 18 UTC do 18 v 18 UTC
vítr z různých směrů 5 kt
Viditelnost 10 km a více
Polojasno ve výšce 4000 ft
Dočasný
od 17 v 18 UTC do 18 v 06 UTC
Viditelnost: 3000 m
déšť, sníh

TAF: LIPB 171700Z 1718/1818 VRB05KT 9999 SCT040 TEMPO 1718/1806 3000 RASN

Stav a předpovědi počasí z více než 4 000 letišť (zprávy METAR a TAF).

Červené a žluté tečky na mapě představují dostupné meteorologické stanice.

Když kurzor umístíte na tečku, zobrazí se název stanice.

Pak kliknutím zobrazíte stav a předpověď počasí.

Chcete-li změnit mapu, kliknutím na zelené tlačítko se znaménkem +mapu přiblížíte, kliknutím na zelené tlačítko se znaménkem – mapu oddálíte a kliknutím na zelené šipky přejdete na sousední mapy.


METAR-TAF: